createdAt,value
2018-07-15T00:00:48.024Z,100830.88
2018-07-15T00:03:16.470Z,100832.28
2018-07-15T00:05:44.953Z,100833.77
2018-07-15T00:08:13.542Z,100833.48
2018-07-15T00:10:45.584Z,100828.28
2018-07-15T00:13:14.798Z,100830.60
2018-07-15T00:15:44.376Z,100829.96
2018-07-15T00:18:12.812Z,100830.00
2018-07-15T00:20:41.262Z,100830.88
2018-07-15T00:23:09.659Z,100828.48
2018-07-15T00:25:38.508Z,100823.81
2018-07-15T00:28:07.012Z,100823.70
2018-07-15T00:30:35.373Z,100821.38
2018-07-15T00:33:03.748Z,100825.29
2018-07-15T00:35:32.226Z,100825.81
2018-07-15T00:38:00.707Z,100824.19
2018-07-15T00:40:29.186Z,100814.95
2018-07-15T00:42:57.733Z,100816.12
2018-07-15T00:45:26.183Z,100815.46
2018-07-15T00:47:54.575Z,100811.80
2018-07-15T00:50:22.975Z,100813.55
2018-07-15T00:52:51.423Z,100815.14
2018-07-15T00:55:19.923Z,100816.22
2018-07-15T00:57:48.332Z,100812.22
2018-07-15T01:00:20.946Z,100810.97
2018-07-15T01:02:49.446Z,100812.36
2018-07-15T01:05:17.848Z,100808.66
2018-07-15T01:07:46.296Z,100812.87
2018-07-15T01:10:14.778Z,100808.25
2018-07-15T01:12:43.246Z,100807.06
2018-07-15T01:15:11.674Z,100804.62
2018-07-15T01:17:40.101Z,100800.75
2018-07-15T01:20:08.892Z,100799.57
2018-07-15T01:22:37.668Z,100801.41
2018-07-15T01:25:06.143Z,100798.97
2018-07-15T01:27:34.699Z,100801.92
2018-07-15T01:30:03.161Z,100802.61
2018-07-15T01:32:31.617Z,100803.51
2018-07-15T01:35:00.261Z,100795.88
2018-07-15T01:37:29.145Z,100797.69
2018-07-15T01:39:57.639Z,100795.72
2018-07-15T01:42:26.187Z,100797.06
2018-07-15T01:44:54.894Z,100800.89
2018-07-15T01:47:23.442Z,100803.46
2018-07-15T01:49:51.896Z,100806.04
2018-07-15T01:52:20.354Z,100806.81
2018-07-15T01:54:48.758Z,100800.47
2018-07-15T01:57:17.180Z,100807.39
2018-07-15T01:59:45.571Z,100809.25
2018-07-15T02:02:13.981Z,100807.18
2018-07-15T02:04:42.399Z,100802.00
2018-07-15T02:07:10.788Z,100801.59
2018-07-15T02:09:39.194Z,100801.26
2018-07-15T02:12:07.629Z,100800.45
2018-07-15T02:14:36.066Z,100798.84
2018-07-15T02:17:04.469Z,100799.77
2018-07-15T02:19:32.874Z,100799.37
2018-07-15T02:22:01.420Z,100799.85
2018-07-15T02:24:29.826Z,100801.26
2018-07-15T02:26:58.334Z,100792.87
2018-07-15T02:29:26.731Z,100798.31
2018-07-15T02:31:55.169Z,100797.50
2018-07-15T02:34:23.570Z,100801.47
2018-07-15T02:36:52.209Z,100796.21
2018-07-15T02:39:20.509Z,100800.88
2018-07-15T02:41:48.966Z,100797.92
2018-07-15T02:44:17.399Z,100799.26
2018-07-15T02:46:45.807Z,100802.73
2018-07-15T02:49:14.231Z,100797.36
2018-07-15T02:51:42.648Z,100785.01
2018-07-15T02:54:11.008Z,100789.25
2018-07-15T02:56:39.424Z,100795.30
2018-07-15T02:59:07.903Z,100794.45
2018-07-15T03:01:36.556Z,100792.49
2018-07-15T03:04:05.340Z,100790.90
2018-07-15T03:06:33.827Z,100790.19
2018-07-15T03:09:02.315Z,100786.55
2018-07-15T03:11:30.719Z,100788.59
2018-07-15T03:13:59.123Z,100781.83
2018-07-15T03:16:27.501Z,100786.56
2018-07-15T03:18:55.876Z,100785.73
2018-07-15T03:21:24.418Z,100781.85
2018-07-15T03:23:53.147Z,100777.16
2018-07-15T03:26:21.598Z,100777.10
2018-07-15T03:28:50.035Z,100775.11
2018-07-15T03:31:18.536Z,100775.98
2018-07-15T03:33:46.972Z,100778.15
2018-07-15T03:36:15.463Z,100776.48
2018-07-15T03:38:43.935Z,100772.67
2018-07-15T03:41:12.356Z,100770.08
2018-07-15T03:43:40.769Z,100775.17
2018-07-15T03:46:09.995Z,100772.17
2018-07-15T03:48:38.408Z,100772.25
2018-07-15T03:51:06.828Z,100771.83
2018-07-15T03:53:35.267Z,100764.20
2018-07-15T03:56:03.671Z,100769.28
2018-07-15T03:58:32.063Z,100770.50
2018-07-15T04:01:00.499Z,100775.22
2018-07-15T04:03:28.920Z,100772.20
2018-07-15T04:05:57.398Z,100775.19
2018-07-15T04:08:25.827Z,100776.00
2018-07-15T04:10:54.259Z,100777.73
2018-07-15T04:13:22.680Z,100773.44
2018-07-15T04:15:51.144Z,100775.92
2018-07-15T04:18:19.615Z,100773.35
2018-07-15T04:20:48.196Z,100771.88
2018-07-15T04:23:17.469Z,100767.05
2018-07-15T04:25:45.953Z,100767.05
2018-07-15T04:28:14.466Z,100761.44
2018-07-15T04:30:42.903Z,100760.95
2018-07-15T04:33:11.322Z,100761.30
2018-07-15T04:35:39.799Z,100761.55
2018-07-15T04:38:08.286Z,100758.09
2018-07-15T04:40:36.735Z,100766.17
2018-07-15T04:43:05.184Z,100760.11
2018-07-15T04:45:33.625Z,100757.06
2018-07-15T04:48:02.097Z,100758.67
2018-07-15T04:50:30.610Z,100758.20
2018-07-15T04:52:59.032Z,100759.28
2018-07-15T04:55:27.657Z,100759.20
2018-07-15T04:57:56.136Z,100756.53
2018-07-15T05:00:24.569Z,100761.91
2018-07-15T05:02:53.041Z,100754.52
2018-07-15T05:05:21.484Z,100761.98
2018-07-15T05:07:49.863Z,100759.03
2018-07-15T05:10:18.261Z,100759.77
2018-07-15T05:12:46.720Z,100761.86
2018-07-15T05:15:15.140Z,100762.66
2018-07-15T05:17:43.579Z,100766.84
2018-07-15T05:20:12.024Z,100777.66
2018-07-15T05:22:40.431Z,100772.75
2018-07-15T05:25:08.841Z,100775.47
2018-07-15T05:27:37.285Z,100773.46
2018-07-15T05:30:06.147Z,100774.19
2018-07-15T05:32:34.901Z,100777.77
2018-07-15T05:35:03.507Z,100782.56
2018-07-15T05:37:31.805Z,100782.72
2018-07-15T05:40:00.227Z,100782.23
2018-07-15T05:42:28.719Z,100781.59
2018-07-15T05:44:57.186Z,100782.23
2018-07-15T05:47:25.747Z,100790.88
2018-07-15T05:49:54.145Z,100786.39
2018-07-15T05:52:22.597Z,100796.52
2018-07-15T05:54:51.091Z,100792.56
2018-07-15T05:57:19.570Z,100797.00
2018-07-15T05:59:47.980Z,100789.67
2018-07-15T06:02:16.446Z,100797.87
2018-07-15T06:04:44.884Z,100800.77
2018-07-15T06:07:13.324Z,100802.89
2018-07-15T06:09:41.802Z,100800.66
2018-07-15T06:12:10.316Z,100809.13
2018-07-15T06:14:38.783Z,100807.88
2018-07-15T06:17:07.283Z,100815.35
2018-07-15T06:19:35.696Z,100812.92
2018-07-15T06:22:04.214Z,100810.95
2018-07-15T06:24:32.602Z,100802.50
2018-07-15T06:27:01.017Z,100802.52
2018-07-15T06:29:29.469Z,100805.86
2018-07-15T06:31:57.962Z,100804.86
2018-07-15T06:34:26.316Z,100807.19
2018-07-15T06:36:54.812Z,100804.53
2018-07-15T06:39:23.272Z,100803.16
2018-07-15T06:41:51.729Z,100803.16
2018-07-15T06:44:20.224Z,100797.67
2018-07-15T06:46:48.764Z,100798.48
2018-07-15T06:49:17.325Z,100805.48
2018-07-15T06:51:45.739Z,100805.12
2018-07-15T06:54:14.188Z,100798.53
2018-07-15T06:56:42.579Z,100804.22
2018-07-15T06:59:10.951Z,100803.04
2018-07-15T07:01:39.387Z,100805.67
2018-07-15T07:04:07.849Z,100798.77
2018-07-15T07:06:36.290Z,100807.41
2018-07-15T07:09:05.576Z,100805.60
2018-07-15T07:11:34.842Z,100802.06
2018-07-15T07:14:03.302Z,100802.00
2018-07-15T07:16:31.943Z,100798.48
2018-07-15T07:19:00.362Z,100790.91
2018-07-15T07:21:28.966Z,100804.16
2018-07-15T07:23:57.422Z,100801.50
2018-07-15T07:26:25.892Z,100802.70
2018-07-15T07:28:54.381Z,100791.16
2018-07-15T07:31:22.798Z,100803.87
2018-07-15T07:33:51.308Z,100804.53
2018-07-15T07:36:19.832Z,100809.53
2018-07-15T07:38:48.419Z,100805.97
2018-07-15T07:41:17.358Z,100804.77
2018-07-15T07:43:46.016Z,100807.33
2018-07-15T07:46:14.459Z,100806.02
2018-07-15T07:48:42.903Z,100804.14
2018-07-15T07:51:11.327Z,100807.21
2018-07-15T07:53:39.811Z,100800.06
2018-07-15T07:56:08.312Z,100802.25
2018-07-15T07:58:36.807Z,100799.37
2018-07-15T08:01:05.336Z,100799.64
2018-07-15T08:03:33.809Z,100804.98
2018-07-15T08:06:02.288Z,100798.14
2018-07-15T08:08:30.704Z,100803.39
2018-07-15T08:10:59.231Z,100804.16
2018-07-15T08:13:27.668Z,100790.44
2018-07-15T08:15:56.136Z,100795.61
2018-07-15T08:18:24.533Z,100800.45
2018-07-15T08:20:53.020Z,100795.61
2018-07-15T08:23:21.430Z,100802.09
2018-07-15T08:25:49.855Z,100801.78
2018-07-15T08:28:18.456Z,100794.08
2018-07-15T08:30:57.876Z,100795.78
2018-07-15T08:33:26.295Z,100797.06
2018-07-15T08:35:54.772Z,100790.27
2018-07-15T08:38:23.207Z,100798.87
2018-07-15T08:40:51.649Z,100801.47
2018-07-15T08:43:20.064Z,100797.88
2018-07-15T08:45:48.495Z,100785.94
2018-07-15T08:48:16.916Z,100795.89
2018-07-15T08:50:45.335Z,100790.54
2018-07-15T08:53:13.792Z,100788.86
2018-07-15T08:55:42.307Z,100791.08
2018-07-15T08:58:10.840Z,100788.05
2018-07-15T09:00:39.542Z,100798.00
2018-07-15T09:03:08.130Z,100788.95
2018-07-15T09:05:37.377Z,100787.89
2018-07-15T09:08:06.056Z,100787.33
2018-07-15T09:10:34.635Z,100788.33
2018-07-15T09:13:03.221Z,100794.26
2018-07-15T09:15:31.884Z,100787.60
2018-07-15T09:18:01.019Z,100775.09
2018-07-15T09:20:29.748Z,100784.48
2018-07-15T09:23:06.668Z,100782.30
2018-07-15T09:25:35.165Z,100781.79
2018-07-15T09:28:03.789Z,100781.97
2018-07-15T09:30:32.730Z,100780.78
2018-07-15T09:33:01.460Z,100778.38
2018-07-15T09:35:30.067Z,100778.76
2018-07-15T09:37:58.768Z,100773.19
2018-07-15T09:40:27.452Z,100771.83
2018-07-15T09:42:56.010Z,100771.82
2018-07-15T09:45:24.648Z,100764.98
2018-07-15T09:47:53.163Z,100770.41
2018-07-15T09:50:21.845Z,100759.39
2018-07-15T09:52:50.453Z,100751.94
2018-07-15T09:55:19.063Z,100757.62
2018-07-15T09:57:48.183Z,100753.83
2018-07-15T10:00:21.789Z,100755.58
2018-07-15T10:02:50.190Z,100753.95
2018-07-15T10:05:19.719Z,100748.59
2018-07-15T10:07:48.693Z,100745.58
2018-07-15T10:10:17.575Z,100736.33
2018-07-15T10:12:46.859Z,100745.73
2018-07-15T10:15:15.284Z,100741.91
2018-07-15T10:17:43.744Z,100738.14
2018-07-15T10:20:12.194Z,100748.21
2018-07-15T10:22:40.600Z,100745.00
2018-07-15T10:25:09.356Z,100740.39
2018-07-15T10:27:37.793Z,100742.56
2018-07-15T10:33:06.014Z,100734.43
2018-07-15T10:35:34.588Z,100736.06
2018-07-15T10:38:03.332Z,100734.89
2018-07-15T10:40:31.938Z,100729.30
2018-07-15T10:43:00.398Z,100732.37
2018-07-15T10:45:28.956Z,100728.20
2018-07-15T10:47:57.492Z,100725.01
2018-07-15T10:50:25.892Z,100720.97
2018-07-15T10:52:54.637Z,100717.05
2018-07-15T10:55:23.125Z,100716.88
2018-07-15T10:57:51.970Z,100715.27
2018-07-15T11:00:20.370Z,100718.23
2018-07-15T11:02:48.863Z,100717.09
2018-07-15T11:05:17.371Z,100711.44
2018-07-15T11:07:45.814Z,100703.77
2018-07-15T11:10:14.314Z,100707.97
2018-07-15T11:12:43.199Z,100706.06
2018-07-15T11:15:11.670Z,100700.40
2018-07-15T11:17:40.205Z,100691.72
2018-07-15T11:20:08.692Z,100692.81
2018-07-15T11:22:37.126Z,100687.57
2018-07-15T11:25:06.085Z,100688.64
2018-07-15T11:27:34.541Z,100694.11
2018-07-15T11:30:02.973Z,100688.80
2018-07-15T11:32:31.429Z,100690.31
2018-07-15T11:34:59.838Z,100693.26
2018-07-15T11:37:28.414Z,100685.16
2018-07-15T11:39:57.013Z,100685.28
2018-07-15T11:42:25.569Z,100683.69
2018-07-15T11:44:54.013Z,100680.47
2018-07-15T11:47:22.499Z,100671.47
2018-07-15T11:49:50.978Z,100681.71
2018-07-15T11:52:19.502Z,100676.99
2018-07-15T11:54:48.010Z,100680.63
2018-07-15T11:57:16.480Z,100679.08
2018-07-15T11:59:44.913Z,100676.08
2018-07-15T12:02:13.320Z,100671.64
2018-07-15T12:04:41.857Z,100669.28
2018-07-15T12:07:10.315Z,100662.64
2018-07-15T12:09:38.735Z,100664.97
2018-07-15T12:12:07.203Z,100663.61
2018-07-15T12:14:35.878Z,100662.75
2018-07-15T12:17:04.328Z,100661.25
2018-07-15T12:19:32.800Z,100654.14
2018-07-15T12:22:01.486Z,100657.42
2018-07-15T12:24:29.932Z,100657.73
2018-07-15T12:26:58.338Z,100650.73
2018-07-15T12:29:26.784Z,100643.58
2018-07-15T12:31:55.194Z,100634.39
2018-07-15T12:34:23.639Z,100637.45
2018-07-15T12:36:52.145Z,100636.97
2018-07-15T12:39:20.571Z,100635.61
2018-07-15T12:41:49.033Z,100633.15
2018-07-15T12:44:17.470Z,100623.99
2018-07-15T12:46:45.972Z,100633.81
2018-07-15T12:49:14.454Z,100630.52
2018-07-15T12:51:42.912Z,100628.22
2018-07-15T12:54:11.416Z,100626.18
2018-07-15T12:56:39.938Z,100624.94
2018-07-15T12:59:08.378Z,100620.78
2018-07-15T13:01:37.002Z,100618.95
2018-07-15T13:04:05.433Z,100618.99
2018-07-15T13:06:33.832Z,100616.44
2018-07-15T13:09:02.435Z,100609.49
2018-07-15T13:11:30.953Z,100610.04
2018-07-15T13:13:59.420Z,100612.66
2018-07-15T13:16:27.864Z,100607.23
2018-07-15T13:18:56.284Z,100614.02
2018-07-15T13:21:24.666Z,100606.90
2018-07-15T13:23:53.238Z,100603.50
2018-07-15T13:26:21.755Z,100601.95
2018-07-15T13:28:50.104Z,100599.36
2018-07-15T13:31:18.530Z,100599.70
2018-07-15T13:33:47.345Z,100592.57
2018-07-15T13:36:15.872Z,100586.64
2018-07-15T13:38:44.318Z,100586.13
2018-07-15T13:41:12.764Z,100591.55
2018-07-15T13:43:41.244Z,100582.48
2018-07-15T13:46:09.675Z,100578.55
2018-07-15T13:48:38.153Z,100582.76
2018-07-15T13:51:06.719Z,100579.34
2018-07-15T13:53:35.164Z,100576.21
2018-07-15T13:56:03.605Z,100579.29
2018-07-15T13:58:31.977Z,100578.30
2018-07-15T14:01:00.468Z,100578.83
2018-07-15T14:03:28.890Z,100579.21
2018-07-15T14:05:57.389Z,100582.75
2018-07-15T14:08:25.812Z,100577.59
2018-07-15T14:10:54.243Z,100567.88
2018-07-15T14:13:22.671Z,100572.02
2018-07-15T14:15:51.186Z,100563.58
2018-07-15T14:18:19.584Z,100564.05
2018-07-15T14:20:48.499Z,100562.44
2018-07-15T14:23:16.875Z,100561.02
2018-07-15T14:25:45.297Z,100568.04
2018-07-15T14:28:13.868Z,100557.48
2018-07-15T14:30:42.311Z,100564.19
2018-07-15T14:33:10.692Z,100560.53
2018-07-15T14:35:39.140Z,100552.89
2018-07-15T14:38:07.586Z,100551.58
2018-07-15T14:40:35.956Z,100555.05
2018-07-15T14:43:04.396Z,100561.14
2018-07-15T14:45:33.226Z,100556.36
2018-07-15T14:48:01.700Z,100543.86
2018-07-15T14:50:30.149Z,100541.75
2018-07-15T14:52:58.744Z,100535.94
2018-07-15T14:55:27.135Z,100533.31
2018-07-15T14:57:55.554Z,100532.84
2018-07-15T15:00:23.954Z,100542.49
2018-07-15T15:02:52.393Z,100538.66
2018-07-15T15:05:20.879Z,100543.86
2018-07-15T15:07:49.288Z,100539.00
2018-07-15T15:10:17.755Z,100529.57
2018-07-15T15:12:46.169Z,100532.75
2018-07-15T15:15:14.735Z,100529.81
2018-07-15T15:17:43.134Z,100526.82
2018-07-15T15:20:11.526Z,100536.09
2018-07-15T15:22:40.034Z,100526.13
2018-07-15T15:25:08.598Z,100528.66
2018-07-15T15:27:37.038Z,100524.48
2018-07-15T15:30:05.837Z,100522.14
2018-07-15T15:32:34.307Z,100523.56
2018-07-15T15:35:02.832Z,100523.20
2018-07-15T15:37:31.241Z,100518.73
2018-07-15T15:39:59.711Z,100512.70
2018-07-15T15:42:28.172Z,100507.02
2018-07-15T15:44:56.654Z,100512.84
2018-07-15T15:47:25.152Z,100504.99
2018-07-15T15:49:53.592Z,100499.25
2018-07-15T15:52:22.144Z,100492.46
2018-07-15T15:54:50.566Z,100490.56
2018-07-15T15:57:19.037Z,100495.06
2018-07-15T15:59:47.498Z,100498.89
2018-07-15T16:02:15.948Z,100500.56
2018-07-15T16:04:44.338Z,100498.06
2018-07-15T16:07:12.963Z,100503.52
2018-07-15T16:09:41.358Z,100496.87
2018-07-15T16:12:09.823Z,100489.59
2018-07-15T16:14:38.275Z,100491.39
2018-07-15T16:17:06.864Z,100483.98
2018-07-15T16:19:35.238Z,100481.15
2018-07-15T16:22:03.824Z,100478.55
2018-07-15T16:24:32.238Z,100471.39
2018-07-15T16:27:00.655Z,100474.39
2018-07-15T16:29:29.034Z,100474.34
2018-07-15T16:31:57.431Z,100466.03
2018-07-15T16:34:25.807Z,100468.88
2018-07-15T16:36:54.231Z,100461.01
2018-07-15T16:39:22.636Z,100464.36
2018-07-15T16:41:51.025Z,100466.63
2018-07-15T16:44:19.427Z,100468.66
2018-07-15T16:46:47.845Z,100472.22
2018-07-15T16:49:16.241Z,100469.61
2018-07-15T16:51:44.661Z,100468.62
2018-07-15T16:54:13.084Z,100462.94
2018-07-15T16:56:41.514Z,100460.68
2018-07-15T16:59:09.924Z,100461.76
2018-07-15T17:01:38.394Z,100465.81
2018-07-15T17:04:06.858Z,100464.37
2018-07-15T17:06:35.322Z,100457.19
2018-07-15T17:09:03.851Z,100463.65
2018-07-15T17:11:32.265Z,100467.33
2018-07-15T17:14:00.797Z,100466.98
2018-07-15T17:16:29.284Z,100464.11
2018-07-15T17:18:57.780Z,100460.39
2018-07-15T17:21:26.507Z,100463.31
2018-07-15T17:23:55.007Z,100470.33
2018-07-15T17:26:23.438Z,100465.92
2018-07-15T17:28:51.891Z,100473.67
2018-07-15T17:31:20.492Z,100471.78
2018-07-15T17:33:49.114Z,100472.63
2018-07-15T17:36:17.936Z,100468.89
2018-07-15T17:38:46.312Z,100465.75
2018-07-15T17:41:14.770Z,100461.89
2018-07-15T17:43:43.468Z,100464.99
2018-07-15T17:46:11.931Z,100464.97
2018-07-15T17:48:40.319Z,100471.64
2018-07-15T17:51:08.684Z,100469.62
2018-07-15T17:53:37.920Z,100465.77
2018-07-15T17:56:06.433Z,100474.58
2018-07-15T17:58:34.908Z,100475.75
2018-07-15T18:01:03.375Z,100476.12
2018-07-15T18:03:31.838Z,100475.78
2018-07-15T18:06:00.293Z,100478.26
2018-07-15T18:08:28.718Z,100480.87
2018-07-15T18:10:57.192Z,100478.98
2018-07-15T18:13:25.862Z,100475.95
2018-07-15T18:15:54.297Z,100487.25
2018-07-15T18:18:22.801Z,100485.59
2018-07-15T18:20:51.331Z,100483.19
2018-07-15T18:23:19.775Z,100484.14
2018-07-15T18:25:48.249Z,100484.00
2018-07-15T18:28:16.719Z,100484.83
2018-07-15T18:30:45.316Z,100485.17
2018-07-15T18:33:13.773Z,100487.75
2018-07-15T18:35:42.249Z,100490.50
2018-07-15T18:38:10.684Z,100487.73
2018-07-15T18:40:39.125Z,100488.91
2018-07-15T18:43:07.706Z,100492.09
2018-07-15T18:45:36.218Z,100488.03
2018-07-15T18:48:04.716Z,100492.16
2018-07-15T18:50:33.145Z,100495.55
2018-07-15T18:53:01.611Z,100490.28
2018-07-15T18:55:30.147Z,100489.10
2018-07-15T18:57:58.647Z,100496.41
2018-07-15T19:00:27.231Z,100495.54
2018-07-15T19:02:55.698Z,100489.91
2018-07-15T19:05:24.231Z,100489.89
2018-07-15T19:07:52.727Z,100490.56
2018-07-15T19:10:21.705Z,100488.61
2018-07-15T19:12:50.188Z,100496.39
2018-07-15T19:15:18.766Z,100493.46
2018-07-15T19:17:47.256Z,100497.80
2018-07-15T19:20:15.886Z,100495.98
2018-07-15T19:22:44.507Z,100499.07
2018-07-15T19:25:13.171Z,100499.48
2018-07-15T19:27:41.707Z,100497.41
2018-07-15T19:30:10.351Z,100505.87
2018-07-15T19:32:38.820Z,100499.18
2018-07-15T19:35:07.377Z,100498.28
2018-07-15T19:37:35.934Z,100506.60
2018-07-15T19:40:04.813Z,100516.61
2018-07-15T19:42:33.428Z,100514.40
2018-07-15T19:45:01.936Z,100514.06
2018-07-15T19:47:30.466Z,100512.58
2018-07-15T19:49:58.879Z,100515.61
2018-07-15T19:52:28.386Z,100514.28
2018-07-15T19:54:57.241Z,100522.05
2018-07-15T19:57:25.794Z,100518.05
2018-07-15T19:59:54.255Z,100516.13
2018-07-15T20:02:22.711Z,100514.73
2018-07-15T20:04:51.158Z,100510.77
2018-07-15T20:07:19.700Z,100512.19
2018-07-15T20:09:48.161Z,100510.70
2018-07-15T20:12:16.769Z,100512.86
2018-07-15T20:14:45.375Z,100512.38
2018-07-15T20:17:13.776Z,100510.17
2018-07-15T20:19:42.195Z,100507.55
2018-07-15T20:22:10.651Z,100501.59
2018-07-15T20:24:39.174Z,100504.39
2018-07-15T20:27:07.863Z,100500.30
2018-07-15T20:29:36.408Z,100505.67
2018-07-15T20:32:05.011Z,100502.52
2018-07-15T20:34:33.598Z,100510.50
2018-07-15T20:37:02.047Z,100511.72
2018-07-15T20:39:30.644Z,100506.05
2018-07-15T20:41:59.151Z,100510.31
2018-07-15T20:44:27.751Z,100512.45
2018-07-15T20:46:56.178Z,100515.41
2018-07-15T20:49:24.631Z,100512.33
2018-07-15T20:51:53.149Z,100507.56
2018-07-15T20:54:21.683Z,100513.05
2018-07-15T20:56:50.173Z,100511.53
2018-07-15T20:59:18.673Z,100513.86
2018-07-15T21:01:47.155Z,100515.35
2018-07-15T21:04:15.566Z,100517.60
2018-07-15T21:06:44.018Z,100526.48
2018-07-15T21:09:12.425Z,100523.77
2018-07-15T21:11:40.961Z,100519.50
2018-07-15T21:14:09.555Z,100530.92
2018-07-15T21:16:38.034Z,100529.20
2018-07-15T21:19:06.583Z,100527.49
2018-07-15T21:21:34.895Z,100528.02
2018-07-15T21:24:03.383Z,100528.13
2018-07-15T21:26:31.853Z,100528.17
2018-07-15T21:29:01.192Z,100527.53
2018-07-15T21:31:29.616Z,100532.69
2018-07-15T21:33:58.060Z,100536.77
2018-07-15T21:36:26.685Z,100535.00
2018-07-15T21:38:55.110Z,100537.02
2018-07-15T21:41:24.088Z,100546.51
2018-07-15T21:43:52.678Z,100539.30
2018-07-15T21:46:21.164Z,100542.44
2018-07-15T21:48:49.667Z,100541.31
2018-07-15T21:51:18.308Z,100540.36
2018-07-15T21:53:46.754Z,100545.18
2018-07-15T21:56:15.226Z,100540.70
2018-07-15T21:58:43.996Z,100540.62
2018-07-15T22:01:12.492Z,100540.42
2018-07-15T22:03:40.976Z,100540.49
2018-07-15T22:06:20.541Z,100537.73
2018-07-15T22:09:00.096Z,100537.22
2018-07-15T22:11:28.563Z,100543.17
2018-07-15T22:13:57.068Z,100537.16
2018-07-15T22:16:25.539Z,100537.52
2018-07-15T22:18:55.223Z,100540.82
2018-07-15T22:21:24.107Z,100535.80
2018-07-15T22:23:52.849Z,100541.95
2018-07-15T22:26:21.514Z,100540.00
2018-07-15T22:28:50.008Z,100538.50
2018-07-15T22:31:18.944Z,100534.31
2018-07-15T22:33:47.471Z,100537.73
2018-07-15T22:36:16.056Z,100538.44
2018-07-15T22:38:44.973Z,100530.48
2018-07-15T22:41:13.444Z,100531.09
2018-07-15T22:43:43.080Z,100528.73
2018-07-15T22:46:11.741Z,100531.61
2018-07-15T22:48:40.444Z,100532.67
2018-07-15T22:51:09.094Z,100531.47
2018-07-15T22:53:37.686Z,100536.95
2018-07-15T22:56:06.132Z,100541.06
2018-07-15T22:58:34.591Z,100539.83
2018-07-15T23:01:03.164Z,100535.33
2018-07-15T23:03:31.687Z,100539.41
2018-07-15T23:06:11.319Z,100539.20
2018-07-15T23:08:39.786Z,100535.91
2018-07-15T23:11:08.288Z,100537.95
2018-07-15T23:13:36.678Z,100533.17
2018-07-15T23:16:05.125Z,100527.38
2018-07-15T23:18:33.609Z,100530.12
2018-07-15T23:21:02.050Z,100530.77
2018-07-15T23:23:30.523Z,100530.99
2018-07-15T23:25:58.984Z,100530.41
2018-07-15T23:28:27.398Z,100533.27
2018-07-15T23:30:55.904Z,100527.41
2018-07-15T23:33:24.404Z,100532.74
2018-07-15T23:35:52.928Z,100533.53
2018-07-15T23:38:21.362Z,100531.63
2018-07-15T23:40:50.059Z,100532.91
2018-07-15T23:43:18.614Z,100524.59
2018-07-15T23:45:47.066Z,100525.02
2018-07-15T23:48:15.486Z,100516.11
2018-07-15T23:50:43.969Z,100521.80
2018-07-15T23:53:12.439Z,100518.08
2018-07-15T23:55:40.880Z,100515.86
2018-07-15T23:58:09.429Z,100515.48
